Time;durP1;ratioP1;P1;durP2;ratioP2;P2;SDS_P1;SDS_P2;PMS_P1;PMS_P2;Temp;Humidity;BMP_temperature;BMP_pressure;BME280_temperature;BME280_humidity;BME280_pressure;Samples;Min_cycle;Max_cycle;Signal;HPM_P1;HPM_P2
2022/04/21 00:00:07;;;;;;;6.53;4.50;;;;;;;8.94;50.33;100760.47;5073436;28;20036;-43
2022/04/21 00:02:33;;;;;;;5.93;4.32;;;;;;;9.15;49.87;100772.41;5072708;28;20039;-42
2022/04/21 00:04:59;;;;;;;5.70;4.20;;;;;;;9.23;49.81;100772.34;5038783;28;20091;-44
2022/04/21 00:07:25;;;;;;;6.65;4.95;;;;;;;9.18;49.68;100769.38;5073012;28;20051;-42
2022/04/21 00:09:51;;;;;;;7.13;4.57;;;;;;;9.11;50.28;100772.75;5072754;28;20039;-47
2022/04/21 00:12:17;;;;;;;9.43;4.53;;;;;;;9.16;50.36;100768.72;5074235;28;20028;-43
2022/04/21 00:14:43;;;;;;;5.95;4.10;;;;;;;8.98;51.10;100759.09;5073686;28;20116;-42
2022/04/21 00:17:09;;;;;;;6.88;4.88;;;;;;;9.08;50.87;100766.91;5073014;28;20060;-44
2022/04/21 00:19:35;;;;;;;7.72;4.10;;;;;;;8.81;51.78;100762.88;5054780;28;20024;-42
2022/04/21 00:24:47;;;;;;;8.15;5.18;;;;;;;8.83;51.99;100744.78;5058095;28;20028;-43
2022/04/21 00:27:12;;;;;;;7.63;5.10;;;;;;;8.91;51.33;100745.59;5072801;28;20576;-42
2022/04/21 00:29:39;;;;;;;10.07;4.63;;;;;;;8.84;51.93;100743.78;5072417;28;20101;-41
2022/04/21 00:32:05;;;;;;;11.15;5.20;;;;;;;8.57;52.73;100716.47;5072459;28;20048;-42
2022/04/21 00:34:32;;;;;;;12.55;5.07;;;;;;;8.43;53.73;100734.09;5054599;28;20400;-42
2022/04/21 00:36:58;;;;;;;11.95;4.95;;;;;;;8.28;54.23;100730.41;5072428;28;20427;-43
2022/04/21 00:39:24;;;;;;;9.90;5.32;;;;;;;8.23;55.08;100736.31;5072583;28;20036;-43
2022/04/21 00:41:55;;;;;;;8.30;5.07;;;;;;;8.07;55.81;100726.47;5054779;28;20457;-44
2022/04/21 00:44:21;;;;;;;14.25;5.43;;;;;;;7.66;57.45;100707.00;5054436;28;20103;-42
2022/04/21 00:46:48;;;;;;;12.75;5.72;;;;;;;7.66;57.40;100721.19;5072586;28;20052;-44
2022/04/21 00:49:14;;;;;;;8.35;4.97;;;;;;;7.45;57.74;100707.50;5054466;28;20025;-42
2022/04/21 00:51:41;;;;;;;8.10;5.15;;;;;;;7.47;58.15;100719.69;5072677;28;20098;-42
2022/04/21 00:54:07;;;;;;;11.70;5.05;;;;;;;7.50;57.84;100724.72;5072465;28;20087;-44
2022/04/21 00:56:33;;;;;;;8.95;4.93;;;;;;;7.42;58.36;100718.53;5072621;28;20477;-41
2022/04/21 00:58:59;;;;;;;8.90;5.28;;;;;;;7.35;58.57;100713.00;5072635;28;20376;-43
2022/04/21 01:04:12;;;;;;;12.43;5.43;;;;;;;7.33;58.51;100715.00;5043666;28;20033;-43
2022/04/21 01:06:37;;;;;;;10.50;5.18;;;;;;;7.32;58.94;100716.84;5054076;28;20480;-45
2022/04/21 01:09:03;;;;;;;11.05;5.13;;;;;;;7.26;59.50;100695.28;5072112;28;20074;-43
2022/04/21 01:11:30;;;;;;;11.25;5.60;;;;;;;7.19;58.99;100708.50;5072426;28;20107;-42
2022/04/21 01:13:56;;;;;;;8.98;5.00;;;;;;;7.31;58.69;100706.31;5074987;28;20093;-44
2022/04/21 01:16:21;;;;;;;8.57;4.75;;;;;;;7.28;58.92;100679.94;5075841;28;20492;-43
2022/04/21 01:18:47;;;;;;;6.75;4.78;;;;;;;7.37;58.65;100700.31;5075937;28;20389;-42
2022/04/21 01:21:13;;;;;;;11.85;5.00;;;;;;;7.28;58.93;100698.63;5076043;28;20029;-42
2022/04/21 01:23:39;;;;;;;13.27;5.20;;;;;;;7.33;58.76;100707.00;5058016;28;20114;-42
2022/04/21 01:26:05;;;;;;;12.48;5.43;;;;;;;7.42;58.87;100702.50;5076025;28;20032;-42
2022/04/21 01:28:31;;;;;;;9.68;5.30;;;;;;;7.29;59.02;100708.34;5075516;28;20028;-42
2022/04/21 01:30:57;;;;;;;6.60;4.97;;;;;;;7.21;58.51;100703.00;5076041;28;20358;-44
2022/04/21 01:33:24;;;;;;;8.43;4.97;;;;;;;6.97;60.23;100684.09;5075906;28;20038;-43
2022/04/21 01:35:51;;;;;;;11.32;4.78;;;;;;;7.10;59.42;100699.63;5076683;28;20048;-43
2022/04/21 01:41:09;;;;;;;10.60;4.95;;;;;;;7.24;58.90;100683.94;5062114;28;20028;-41
2022/04/21 01:43:37;;;;;;;13.85;4.95;;;;;;;7.08;58.93;100658.91;5076688;28;20085;-41
2022/04/21 01:46:04;;;;;;;10.18;4.82;;;;;;;7.07;59.71;100699.94;5059505;28;20103;-41
2022/04/21 01:48:30;;;;;;;11.15;5.00;;;;;;;7.06;60.11;100689.47;5076054;28;20032;-41
2022/04/21 01:50:55;;;;;;;13.30;4.95;;;;;;;6.91;60.76;100692.78;5057744;28;20059;-41
2022/04/21 01:53:22;;;;;;;9.88;4.78;;;;;;;6.88;61.37;100687.75;5057782;28;20044;-41
2022/04/21 01:55:47;;;;;;;7.32;4.65;;;;;;;6.88;60.07;100661.06;5057945;28;20107;-42
2022/04/21 01:58:13;;;;;;;9.23;4.25;;;;;;;6.77;60.95;100654.19;5057970;28;20072;-41
2022/04/21 02:00:40;;;;;;;7.82;4.78;;;;;;;6.79;61.66;100684.22;5075807;28;20085;-44
2022/04/21 02:03:06;;;;;;;11.25;5.03;;;;;;;6.94;60.88;100680.91;5078811;28;20088;-42
2022/04/21 02:05:33;;;;;;;7.95;4.32;;;;;;;7.09;60.03;100687.25;5078794;28;20028;-42
2022/04/21 02:08:00;;;;;;;7.93;4.47;;;;;;;7.14;60.05;100684.94;5029381;28;20053;-42
2022/04/21 02:10:26;;;;;;;10.10;4.80;;;;;;;7.12;60.40;100678.94;5039114;28;20470;-42
2022/04/21 02:12:52;;;;;;;8.73;4.75;;;;;;;7.17;59.71;100676.59;5020018;28;20433;-47
2022/04/21 02:15:18;;;;;;;13.90;4.95;;;;;;;7.25;59.53;100675.78;5039728;28;20112;-44
2022/04/21 02:17:44;;;;;;;10.68;4.72;;;;;;;7.22;59.79;100662.75;5039665;28;20119;-42
2022/04/21 02:20:15;;;;;;;11.27;4.82;;;;;;;7.26;58.54;100673.94;5022514;28;20034;-44
2022/04/21 02:22:41;;;;;;;11.02;4.13;;;;;;;7.10;59.43;100662.25;5037113;28;20044;-43
2022/04/21 02:25:10;;;;;;;11.85;4.93;;;;;;;7.13;59.04;100672.59;5033884;28;20037;-42
2022/04/21 02:27:37;;;;;;;8.90;4.57;;;;;;;7.10;59.03;100675.59;5035085;28;20034;-44
2022/04/21 02:30:08;;;;;;;5.80;3.92;;;;;;;7.08;59.77;100674.94;5033750;28;20041;-43
2022/04/21 02:32:34;;;;;;;11.73;4.20;;;;;;;7.10;59.17;100669.44;5017777;28;20029;-48
2022/04/21 02:35:01;;;;;;;10.20;4.80;;;;;;;7.13;58.89;100674.41;5035726;28;20083;-45
2022/04/21 02:37:26;;;;;;;8.93;4.47;;;;;;;7.04;59.21;100654.03;5033669;28;20060;-47
2022/04/21 02:39:52;;;;;;;10.88;4.18;;;;;;;7.12;59.39;100670.91;5034630;28;20061;-42
2022/04/21 02:42:20;;;;;;;8.05;4.57;;;;;;;6.92;61.40;100656.22;5034491;28;20091;-44
2022/04/21 02:44:47;;;;;;;7.38;4.70;;;;;;;6.91;60.36;100665.22;5016322;28;20039;-43
2022/04/21 02:47:12;;;;;;;9.43;4.22;;;;;;;6.87;60.35;100655.88;5034607;28;20056;-42
2022/04/21 02:49:40;;;;;;;6.22;4.38;;;;;;;6.88;60.63;100661.06;5034184;28;20127;-42
2022/04/21 02:52:09;;;;;;;8.02;4.40;;;;;;;6.90;60.69;100660.88;5032961;28;20485;-42
2022/04/21 02:57:21;;;;;;;10.13;4.50;;;;;;;6.95;60.26;100653.22;5033064;28;20029;-43
2022/04/21 02:59:50;;;;;;;6.78;4.43;;;;;;;6.81;59.82;100630.66;5033934;28;20112;-44
2022/04/21 03:02:16;;;;;;;9.82;4.72;;;;;;;6.78;60.60;100653.19;5032579;28;20432;-43
2022/04/21 03:04:41;;;;;;;9.88;4.97;;;;;;;6.78;61.04;100650.53;5033894;28;20036;-43
2022/04/21 03:07:07;;;;;;;7.57;5.28;;;;;;;6.72;60.29;100642.34;5032498;28;20044;-43
2022/04/21 03:09:33;;;;;;;8.70;4.50;;;;;;;6.81;59.56;100656.53;5033813;28;20099;-42
2022/04/21 03:12:01;;;;;;;9.65;4.35;;;;;;;6.77;60.27;100656.03;5033818;28;20033;-42
2022/04/21 03:14:27;;;;;;;11.10;4.78;;;;;;;6.71;60.18;100651.34;5034103;28;20033;-41
2022/04/21 03:16:53;;;;;;;13.75;5.00;;;;;;;6.74;61.13;100651.88;5033572;28;20040;-43
2022/04/21 03:19:19;;;;;;;8.60;4.80;;;;;;;6.75;60.77;100653.53;5034012;28;20069;-44
2022/04/21 03:24:30;;;;;;;8.40;4.75;;;;;;;6.45;61.85;100633.63;5032887;28;20033;-41
2022/04/21 03:26:56;;;;;;;8.02;4.72;;;;;;;6.33;62.82;100640.22;5033924;28;20060;-42
2022/04/21 03:29:22;;;;;;;10.77;4.85;;;;;;;6.13;63.62;100634.31;5033914;28;20034;-42
2022/04/21 03:31:48;;;;;;;9.07;4.38;;;;;;;6.24;62.97;100642.06;5033370;28;20138;-41
2022/04/21 03:34:17;;;;;;;14.18;4.95;;;;;;;6.26;63.65;100648.06;5032065;28;20026;-43
2022/04/21 03:36:45;;;;;;;8.60;4.88;;;;;;;6.35;62.73;100648.91;5032782;28;20095;-42
2022/04/21 03:39:11;;;;;;;10.85;4.80;;;;;;;6.39;63.42;100651.09;5033565;28;20026;-42
2022/04/21 03:41:37;;;;;;;13.20;5.20;;;;;;;6.43;62.28;100648.94;5033156;28;20034;-41
2022/04/21 03:44:04;;;;;;;8.20;4.80;;;;;;;6.43;62.30;100654.28;5033515;28;20053;-41
2022/04/21 03:46:31;;;;;;;10.38;4.90;;;;;;;6.42;62.74;100649.09;5033485;28;20040;-42
2022/04/21 03:48:57;;;;;;;10.68;4.70;;;;;;;6.43;62.45;100653.47;5033170;28;20037;-44
2022/04/21 03:51:24;;;;;;;14.90;4.95;;;;;;;6.39;63.08;100658.28;5033130;28;20441;-45
2022/04/21 03:53:50;;;;;;;12.75;5.60;;;;;;;6.25;63.26;100650.88;5015388;28;20033;-44
2022/04/21 03:56:15;;;;;;;8.60;4.80;;;;;;;6.08;64.10;100649.97;5031697;28;20128;-43
2022/04/21 03:58:41;;;;;;;8.48;4.50;;;;;;;6.10;63.74;100658.66;5032888;28;20029;-43
2022/04/21 04:01:07;;;;;;;5.75;4.60;;;;;;;6.01;63.85;100639.09;5033170;28;20072;-42
2022/04/21 04:03:33;;;;;;;10.38;4.95;;;;;;;6.13;65.16;100658.31;5033063;28;20021;-44
2022/04/21 04:05:59;;;;;;;12.98;5.10;;;;;;;6.16;63.65;100647.34;5033179;28;20106;-44
2022/04/21 04:11:10;;;;;;;11.55;5.20;;;;;;;6.17;63.78;100646.34;5059299;28;20115;-44
2022/04/21 04:13:36;;;;;;;8.90;5.18;;;;;;;5.99;64.78;100647.25;5073277;28;20386;-44
2022/04/21 04:16:02;;;;;;;10.68;4.97;;;;;;;5.54;66.22;100632.31;5073295;28;20035;-46
2022/04/21 04:18:29;;;;;;;12.82;5.28;;;;;;;5.61;65.91;100653.88;5073403;28;20117;-43
2022/04/21 04:20:55;;;;;;;11.55;5.47;;;;;;;5.63;66.18;100659.88;5073190;28;20048;-45
2022/04/21 04:23:22;;;;;;;9.73;4.90;;;;;;;5.70;65.19;100650.25;5073269;28;20024;-42
2022/04/21 04:25:48;;;;;;;10.10;4.40;;;;;;;5.77;64.79;100653.94;5073362;28;20079;-42
2022/04/21 04:28:15;;;;;;;12.80;5.60;;;;;;;5.73;65.29;100647.25;5054557;28;20029;-43
2022/04/21 04:30:42;;;;;;;9.32;5.20;;;;;;;5.65;66.51;100655.22;5072840;28;20025;-43
2022/04/21 04:33:08;;;;;;;15.32;5.40;;;;;;;5.58;65.77;100628.34;5074683;28;20064;-42
2022/04/21 04:35:34;;;;;;;14.35;5.47;;;;;;;5.70;65.95;100652.06;5072970;28;20082;-42
2022/04/21 04:38:00;;;;;;;9.73;5.00;;;;;;;5.56;66.17;100634.84;5072727;28;20029;-42
2022/04/21 04:40:26;;;;;;;11.70;5.40;;;;;;;5.74;65.41;100650.75;5072653;28;20024;-43
2022/04/21 04:42:54;;;;;;;13.65;5.38;;;;;;;5.74;65.00;100648.94;5074424;28;20042;-44
2022/04/21 04:48:06;;;;;;;10.55;5.35;;;;;;;5.71;65.89;100651.09;5061427;28;20032;-42
2022/04/21 04:50:32;;;;;;;11.30;5.63;;;;;;;5.65;66.47;100649.88;5078240;28;20025;-43
2022/04/21 04:53:00;;;;;;;9.70;5.43;;;;;;;5.54;66.14;100648.31;5078267;28;20063;-42
2022/04/21 04:55:26;;;;;;;12.98;5.43;;;;;;;5.46;66.27;100631.44;5060256;28;20472;-42
2022/04/21 04:57:53;;;;;;;14.00;5.25;;;;;;;5.43;66.03;100635.25;5059542;28;20036;-42
2022/04/21 05:00:19;;;;;;;11.85;5.32;;;;;;;5.47;66.92;100643.78;5077106;28;20035;-45
2022/04/21 05:02:45;;;;;;;13.63;5.32;;;;;;;5.46;65.65;100629.63;5058684;28;20173;-44
2022/04/21 05:05:11;;;;;;;11.13;4.97;;;;;;;5.48;66.09;100632.97;5076165;28;20111;-43
2022/04/21 05:07:39;;;;;;;9.25;4.53;;;;;;;5.62;66.25;100644.84;5075909;28;20044;-42
2022/04/21 05:10:07;;;;;;;8.05;4.65;;;;;;;5.53;65.90;100635.97;5058402;28;20071;-43
2022/04/21 05:12:33;;;;;;;16.77;5.05;;;;;;;5.52;65.94;100636.16;5076477;28;20066;-42
2022/04/21 05:14:58;;;;;;;11.23;5.97;;;;;;;5.63;66.15;100647.38;5076045;28;20125;-45
2022/04/21 05:17:25;;;;;;;11.13;4.97;;;;;;;5.67;65.83;100652.41;5076275;28;20047;-44
2022/04/21 05:19:52;;;;;;;9.32;6.35;;;;;;;5.61;66.36;100641.38;5076292;28;20025;-45
2022/04/21 05:22:25;;;;;;;10.65;5.20;;;;;;;5.64;66.60;100645.53;5075920;28;20033;-42
2022/04/21 05:24:52;;;;;;;14.65;5.45;;;;;;;5.63;66.02;100642.03;5075935;28;20067;-42
2022/04/21 05:27:18;;;;;;;12.52;5.88;;;;;;;5.68;65.78;100643.41;5075730;28;20568;-44
2022/04/21 05:32:36;;;;;;;9.68;5.32;;;;;;;5.69;66.26;100631.75;5046981;28;20468;-43
2022/04/21 05:35:03;;;;;;;13.75;5.63;;;;;;;5.77;66.57;100647.78;5076047;28;20073;-47
2022/04/21 05:37:29;;;;;;;11.10;5.97;;;;;;;5.81;65.43;100651.78;5059100;28;20345;-42
2022/04/21 05:39:55;;;;;;;13.23;5.93;;;;;;;5.85;65.94;100644.31;5077555;28;20090;-42
2022/04/21 05:42:23;;;;;;;9.70;4.60;;;;;;;5.87;66.06;100645.84;5076330;28;20477;-43
2022/04/21 05:44:52;;;;;;;14.15;5.45;;;;;;;5.89;66.31;100641.19;5057859;28;20093;-42
2022/04/21 05:47:18;;;;;;;12.75;5.32;;;;;;;5.94;66.39;100644.22;5075350;28;20346;-43
2022/04/21 05:49:44;;;;;;;14.65;7.07;;;;;;;5.98;65.97;100637.59;5057517;28;20036;-42
2022/04/21 05:52:13;;;;;;;12.82;6.25;;;;;;;6.03;66.62;100628.28;5075601;28;20468;-43
2022/04/21 05:54:39;;;;;;;13.07;6.47;;;;;;;6.04;66.62;100632.63;5075390;28;20555;-42
2022/04/21 05:57:05;;;;;;;14.50;6.97;;;;;;;5.79;69.48;100635.13;5057270;28;20035;-42
2022/04/21 05:59:32;;;;;;;19.77;6.40;;;;;;;5.80;68.20;100648.31;5074741;28;20027;-43
2022/04/21 06:01:59;;;;;;;11.73;6.50;;;;;;;5.80;68.06;100642.97;5057981;28;20439;-43
2022/04/21 06:04:25;;;;;;;10.77;6.47;;;;;;;5.81;68.70;100643.81;5076191;28;20108;-42
2022/04/21 06:06:51;;;;;;;18.83;6.75;;;;;;;5.91;68.73;100646.38;5075696;28;20035;-42
2022/04/21 06:09:17;;;;;;;21.52;6.40;;;;;;;6.44;67.18;100644.44;5040840;28;20485;-42
2022/04/21 06:11:43;;;;;;;9.75;5.28;;;;;;;7.71;63.47;100644.00;5074747;28;20024;-45
2022/04/21 06:14:09;;;;;;;13.30;5.80;;;;;;;7.64;62.04;100644.84;5057107;28;20391;-44
2022/04/21 06:16:35;;;;;;;14.43;6.30;;;;;;;7.05;64.60;100651.22;5057788;28;20485;-43
2022/04/21 06:19:02;;;;;;;11.52;5.45;;;;;;;6.75;64.97;100655.38;5057621;28;20035;-47
2022/04/21 06:21:28;;;;;;;20.08;6.45;;;;;;;6.57;66.56;100642.13;5076348;28;20028;-42
2022/04/21 06:23:54;;;;;;;12.73;5.38;;;;;;;6.46;66.49;100637.09;5076066;28;20380;-44
2022/04/21 06:26:25;;;;;;;14.02;5.85;;;;;;;6.40;66.97;100652.75;5075095;28;20029;-43
2022/04/21 06:28:51;;;;;;;17.85;6.72;;;;;;;6.26;69.48;100661.41;5074350;28;20033;-43
2022/04/21 06:31:17;;;;;;;15.25;7.10;;;;;;;6.33;68.47;100657.09;5056511;28;20138;-45
2022/04/21 06:33:42;;;;;;;13.30;5.95;;;;;;;6.42;67.40;100652.59;5056482;28;20036;-47
2022/04/21 06:36:08;;;;;;;17.70;6.57;;;;;;;6.43;68.33;100648.94;5074570;28;20036;-44
2022/04/21 06:38:34;;;;;;;14.02;4.78;;;;;;;6.40;68.09;100636.75;5073999;28;20441;-45
2022/04/21 06:41:01;;;;;;;15.07;6.80;;;;;;;6.40;68.86;100635.91;5074117;28;20381;-42
2022/04/21 06:48:58;;;;;;;15.23;6.85;;;;;;;6.39;69.67;100631.59;5055902;28;20118;-43
2022/04/21 06:51:27;;;;;;;20.83;6.85;;;;;;;6.48;69.67;100632.44;5056405;28;20048;-43
2022/04/21 06:53:53;;;;;;;12.05;6.80;;;;;;;6.61;69.02;100646.13;5073983;28;20040;-45
2022/04/21 06:56:19;;;;;;;18.23;6.93;;;;;;;6.64;69.88;100637.81;5039704;28;20522;-43
2022/04/21 06:58:46;;;;;;;21.52;7.93;;;;;;;6.67;70.12;100640.16;5057113;28;20111;-47
2022/04/21 07:01:11;;;;;;;16.17;7.82;;;;;;;6.57;71.89;100647.47;5078799;28;20116;-43
2022/04/21 07:03:37;;;;;;;18.42;7.43;;;;;;;6.60;71.58;100647.16;5077383;28;20107;-43
2022/04/21 07:06:03;;;;;;;14.75;7.68;;;;;;;6.67;71.70;100642.00;5058610;28;20086;-43
2022/04/21 07:08:29;;;;;;;18.67;7.97;;;;;;;6.74;71.03;100646.53;5075432;28;20048;-42
2022/04/21 07:10:55;;;;;;;17.63;7.57;;;;;;;6.84;71.62;100646.38;5075623;28;20506;-42
2022/04/21 07:13:21;;;;;;;34.55;8.95;;;;;;;6.91;72.48;100650.06;5076076;28;20377;-43
2022/04/21 07:15:47;;;;;;;15.23;8.38;;;;;;;7.03;70.81;100647.06;5074607;28;20025;-43
2022/04/21 07:18:13;;;;;;;19.38;8.40;;;;;;;7.06;70.91;100652.91;5074911;28;20036;-43
2022/04/21 07:20:39;;;;;;;21.48;7.50;;;;;;;7.12;71.34;100636.22;5074787;28;20032;-43
2022/04/21 07:23:05;;;;;;;13.18;7.00;;;;;;;7.19;70.90;100641.72;5040582;28;20407;-42
2022/04/21 07:25:31;;;;;;;19.13;8.38;;;;;;;7.28;70.33;100646.06;5075141;28;20571;-44
2022/04/21 07:27:57;;;;;;;13.88;7.38;;;;;;;7.28;71.24;100639.88;5057876;28;20119;-43
2022/04/21 07:30:23;;;;;;;22.38;8.15;;;;;;;7.33;71.12;100643.69;5075726;28;20048;-43
2022/04/21 07:32:49;;;;;;;16.20;7.50;;;;;;;7.29;71.39;100630.88;5075915;28;20033;-43
2022/04/21 07:35:15;;;;;;;21.30;8.68;;;;;;;7.42;71.80;100644.53;5074896;28;20385;-43
2022/04/21 07:37:41;;;;;;;16.75;9.77;;;;;;;7.53;71.54;100654.06;5075619;28;20089;-43
2022/04/21 07:40:07;;;;;;;18.05;8.45;;;;;;;7.63;71.21;100645.84;5074940;28;20087;-43
2022/04/21 07:42:33;;;;;;;23.15;9.82;;;;;;;7.70;72.25;100647.66;5073621;28;20024;-43
2022/04/21 07:45:00;;;;;;;25.60;9.80;;;;;;;7.77;71.07;100650.50;5073483;28;20481;-43
2022/04/21 07:47:26;;;;;;;20.48;9.68;;;;;;;7.93;71.81;100649.59;5055363;28;20032;-42
2022/04/21 07:49:51;;;;;;;17.23;9.90;;;;;;;8.03;71.06;100655.59;5072954;28;20032;-42
2022/04/21 07:55:23;;;;;;;24.27;10.32;;;;;;;8.24;70.69;100652.34;5059362;28;20033;-43
2022/04/21 07:57:51;;;;;;;15.70;8.88;;;;;;;8.36;69.91;100657.31;5056355;28;20059;-42
2022/04/21 08:00:18;;;;;;;21.58;9.98;;;;;;;8.42;69.85;100649.47;5073387;28;20044;-43
2022/04/21 08:02:45;;;;;;;18.70;10.90;;;;;;;8.48;69.76;100654.09;5055494;28;20477;-44
2022/04/21 08:05:14;;;;;;;22.15;10.65;;;;;;;8.65;69.91;100657.50;5054993;28;20472;-43
2022/04/21 08:07:40;;;;;;;16.83;10.00;;;;;;;8.81;70.06;100655.78;5038723;28;20048;-43
2022/04/21 08:10:08;;;;;;;23.30;10.15;;;;;;;8.84;69.86;100644.69;5073444;28;20029;-43
2022/04/21 08:12:40;;;;;;;22.20;10.80;;;;;;;8.95;68.82;100649.63;5073189;28;20028;-45
2022/04/21 08:15:07;;;;;;;23.77;11.00;;;;;;;9.01;69.28;100645.44;5072820;28;20028;-43
2022/04/21 08:17:33;;;;;;;25.77;9.98;;;;;;;9.08;68.73;100647.22;5072632;28;20085;-44
2022/04/21 08:19:59;;;;;;;13.07;8.60;;;;;;;9.27;67.74;100645.88;5072814;28;20426;-44
2022/04/21 08:22:24;;;;;;;21.77;10.85;;;;;;;9.41;68.67;100643.41;5072361;28;20039;-43
2022/04/21 08:33:07;;;;;;;23.98;10.90;;;;;;;10.13;66.97;100648.19;5058317;28;20029;-43
2022/04/21 08:35:32;;;;;;;26.67;11.65;;;;;;;10.29;67.26;100641.78;5073407;28;20346;-42
2022/04/21 08:37:58;;;;;;;27.75;11.10;;;;;;;10.45;66.28;100649.63;5073163;28;20037;-43
2022/04/21 08:40:27;;;;;;;17.23;11.05;;;;;;;10.63;65.26;100648.41;5073767;28;20047;-43
2022/04/21 08:42:54;;;;;;;22.38;10.98;;;;;;;10.78;64.91;100657.25;5073099;28;20035;-42
2022/04/21 08:45:20;;;;;;;20.98;11.35;;;;;;;10.95;64.37;100641.72;5072630;28;20108;-45
2022/04/21 08:47:48;;;;;;;18.67;10.30;;;;;;;11.24;63.91;100651.50;5054667;28;20055;-43
2022/04/21 08:50:16;;;;;;;26.40;10.82;;;;;;;11.35;63.08;100641.25;5054773;28;20052;-44
2022/04/21 08:52:43;;;;;;;23.98;11.13;;;;;;;11.53;63.34;100649.66;5073028;28;20385;-44
2022/04/21 08:55:10;;;;;;;27.13;10.88;;;;;;;11.72;61.95;100647.31;5072692;28;20509;-43
2022/04/21 08:57:37;;;;;;;19.83;11.38;;;;;;;11.88;61.17;100646.19;5072495;28;20130;-43
2022/04/21 09:00:06;;;;;;;16.35;10.40;;;;;;;12.09;60.75;100629.13;5072588;28;20033;-45
2022/04/21 09:02:39;;;;;;;20.38;10.10;;;;;;;12.51;60.45;100633.44;5072567;28;20032;-43
2022/04/21 09:05:06;;;;;;;17.15;9.27;;;;;;;12.83;59.08;100628.34;5072882;28;20372;-43
2022/04/21 09:07:42;;;;;;;20.95;9.15;;;;;;;13.83;55.45;100622.16;5054556;28;20044;-43
2022/04/21 09:10:11;;;;;;;21.02;9.60;;;;;;;15.71;51.54;100628.94;5073733;28;20029;-43
2022/04/21 09:12:55;;;;;;;16.75;8.93;;;;;;;16.78;47.37;100630.38;5074935;28;20036;-43
2022/04/21 09:15:27;;;;;;;17.10;7.50;;;;;;;17.82;46.10;100621.81;5057511;28;20028;-43
2022/04/21 09:17:56;;;;;;;13.38;8.00;;;;;;;18.53;45.09;100621.66;5056342;28;20032;-47
2022/04/21 09:20:26;;;;;;;18.92;8.07;;;;;;;19.11;42.84;100593.34;5056484;28;20476;-43
2022/04/21 09:22:54;;;;;;;11.35;7.05;;;;;;;19.28;42.46;100622.50;5055512;28;20073;-43
2022/04/21 09:25:24;;;;;;;13.10;7.78;;;;;;;19.48;39.06;100601.03;5072920;28;20085;-47
2022/04/21 09:27:51;;;;;;;16.00;7.43;;;;;;;20.26;40.91;100608.31;5022229;28;20040;-44
2022/04/21 09:30:17;;;;;;;9.27;6.80;;;;;;;20.86;39.65;100606.56;5072464;28;20048;-46
2022/04/21 09:32:54;;;;;;;15.85;7.60;;;;;;;21.40;37.48;100594.69;5072575;28;20435;-44
2022/04/21 09:35:22;;;;;;;9.82;7.32;;;;;;;21.45;37.80;100592.00;5074213;28;20040;-44
2022/04/21 09:37:51;;;;;;;12.63;7.40;;;;;;;21.56;37.85;100596.50;5075735;28;20029;-43
2022/04/21 09:40:18;;;;;;;8.25;6.70;;;;;;;21.94;38.99;100583.56;5042067;28;20028;-44
2022/04/21 09:42:55;;;;;;;9.38;6.53;;;;;;;22.44;37.59;100596.91;5075539;28;20029;-43
2022/04/21 09:48:28;;;;;;;9.30;6.35;;;;;;;22.95;34.33;100584.09;5060309;28;20097;-43
2022/04/21 09:50:55;;;;;;;10.70;5.35;;;;;;;23.50;35.71;100586.28;5057628;28;20469;-45
2022/04/21 09:53:23;;;;;;;7.03;5.60;;;;;;;23.39;30.84;100585.47;5075260;28;20032;-43
2022/04/21 09:55:51;;;;;;;9.82;5.80;;;;;;;23.54;33.80;100590.91;5075638;28;20043;-43
2022/04/21 09:58:17;;;;;;;6.50;5.18;;;;;;;23.74;31.66;100567.31;5057930;28;20424;-44
2022/04/21 10:00:44;;;;;;;11.80;5.78;;;;;;;23.79;32.13;100578.25;5076077;28;20103;-43
2022/04/21 10:03:11;;;;;;;9.00;5.30;;;;;;;23.45;31.59;100578.06;5077418;28;20032;-44
2022/04/21 10:05:39;;;;;;;9.65;4.78;;;;;;;23.00;30.16;100586.03;5076677;28;20491;-43
2022/04/21 10:08:08;;;;;;;6.22;4.95;;;;;;;23.63;30.19;100579.41;5076066;28;20045;-43
2022/04/21 10:10:35;;;;;;;5.15;4.65;;;;;;;24.02;29.56;100579.56;5076746;28;20060;-45
2022/04/21 10:13:02;;;;;;;7.03;4.88;;;;;;;24.23;28.70;100563.81;5058571;28;20452;-43
2022/04/21 10:15:29;;;;;;;6.32;4.55;;;;;;;24.25;26.24;100574.53;5076580;28;20037;-43
2022/04/21 10:17:55;;;;;;;7.95;4.63;;;;;;;24.12;27.02;100563.03;5058429;28;20055;-43
2022/04/21 10:20:26;;;;;;;6.60;4.78;;;;;;;24.45;27.71;100557.94;5057957;28;20036;-43
2022/04/21 10:22:53;;;;;;;7.40;4.07;;;;;;;24.88;26.29;100555.44;5076092;28;20036;-43
2022/04/21 10:25:19;;;;;;;8.88;4.20;;;;;;;25.76;25.76;100554.59;5059022;28;20173;-43
2022/04/21 10:27:47;;;;;;;6.00;3.45;;;;;;;26.07;25.88;100555.88;5076280;28;20078;-44
2022/04/21 10:30:22;;;;;;;6.78;4.53;;;;;;;25.84;24.83;100564.97;5075194;28;20029;-43
2022/04/21 10:32:50;;;;;;;4.40;3.97;;;;;;;26.13;25.26;100561.31;5074466;28;20109;-43
2022/04/21 10:35:38;;;;;;;6.32;4.18;;;;;;;26.33;25.54;100540.94;5075027;28;20048;-45
2022/04/21 10:38:20;;;;;;;7.45;4.55;;;;;;;25.80;24.08;100561.19;5048122;28;20020;-45
2022/04/21 10:41:06;;;;;;;5.55;4.38;;;;;;;25.03;25.64;100559.97;5075066;28;20031;-43
2022/04/21 10:44:03;;;;;;;8.38;5.05;;;;;;;25.05;24.15;100556.94;5074255;28;20119;-45
2022/04/21 10:46:30;;;;;;;4.40;4.00;;;;;;;24.68;27.37;100553.69;5043619;28;20063;-43
2022/04/21 10:48:58;;;;;;;10.30;4.82;;;;;;;24.13;25.32;100559.22;5074052;28;20037;-44
2022/04/21 10:58:49;;;;;;;5.38;3.75;;;;;;;26.81;24.72;100547.13;5032824;28;20093;-43
2022/04/21 11:01:22;;;;;;;10.88;4.65;;;;;;;26.09;22.10;100544.56;5048929;28;20496;-45
2022/04/21 11:04:05;;;;;;;8.88;4.65;;;;;;;26.28;20.87;100544.63;5074063;28;20099;-43
2022/04/21 11:06:42;;;;;;;11.27;4.85;;;;;;;26.85;21.96;100547.31;5073874;28;20040;-45
2022/04/21 11:09:08;;;;;;;10.32;4.32;;;;;;;27.38;22.27;100533.19;5073946;28;20039;-43
2022/04/21 11:11:50;;;;;;;6.47;5.00;;;;;;;27.64;20.30;100527.16;5074182;28;20031;-44
2022/04/21 11:14:33;;;;;;;4.97;3.75;;;;;;;28.00;20.84;100520.91;5073871;28;20029;-45
2022/04/21 11:17:00;;;;;;;9.57;4.97;;;;;;;27.47;21.45;100526.94;5073877;28;20036;-44
2022/04/21 11:19:31;;;;;;;5.63;4.25;;;;;;;27.47;20.69;100515.91;5073686;28;20254;-43
2022/04/21 11:21:59;;;;;;;5.78;4.97;;;;;;;27.78;21.93;100532.66;5073721;28;20107;-47
2022/04/21 11:24:26;;;;;;;5.78;5.00;;;;;;;28.34;20.48;100528.72;5074038;28;20028;-42
2022/04/21 11:26:55;;;;;;;8.65;4.65;;;;;;;28.04;21.08;100510.06;5073694;28;20089;-46
2022/04/21 11:29:21;;;;;;;9.95;4.70;;;;;;;28.02;21.15;100529.69;5073484;28;20085;-45
2022/04/21 11:31:48;;;;;;;8.80;4.85;;;;;;;27.44;20.38;100530.34;5073753;28;20020;-46
2022/04/21 11:34:23;;;;;;;5.05;3.30;;;;;;;29.39;18.81;100521.13;5055492;28;20055;-46
2022/04/21 11:36:49;;;;;;;6.30;4.00;;;;;;;28.18;19.50;100511.66;5055573;28;20119;-45
2022/04/21 11:39:15;;;;;;;6.95;4.10;;;;;;;28.43;20.81;100497.56;5055440;28;20107;-46
2022/04/21 11:41:44;;;;;;;6.25;5.07;;;;;;;28.37;20.40;100519.78;5073599;28;20025;-45
2022/04/21 11:44:10;;;;;;;6.28;4.72;;;;;;;28.08;20.31;100511.91;5073551;28;20439;-46
2022/04/21 11:46:40;;;;;;;5.32;3.92;;;;;;;27.51;21.22;100515.00;5073304;28;20090;-44
2022/04/21 11:49:08;;;;;;;9.15;4.47;;;;;;;25.99;23.33;100519.97;5073245;28;20120;-43
2022/04/21 11:51:33;;;;;;;5.80;4.10;;;;;;;27.32;23.09;100508.75;5073335;28;20027;-45
2022/04/21 11:54:04;;;;;;;6.85;3.60;;;;;;;27.95;20.52;100508.06;5038637;28;20028;-44
2022/04/21 11:56:30;;;;;;;4.60;3.53;;;;;;;28.85;21.92;100495.47;5072785;28;20028;-45
2022/04/21 11:58:57;;;;;;;3.88;3.40;;;;;;;29.20;21.14;100498.41;5072404;28;20085;-43
2022/04/21 12:06:58;;;;;;;5.25;3.95;;;;;;;30.51;19.07;100484.88;5058090;28;20358;-44
2022/04/21 12:09:26;;;;;;;5.22;3.70;;;;;;;30.00;18.13;100484.53;5073178;28;20385;-49
2022/04/21 12:11:54;;;;;;;4.03;3.65;;;;;;;30.07;19.46;100488.44;5073089;28;20035;-44
2022/04/21 12:14:21;;;;;;;8.35;3.05;;;;;;;29.78;18.71;100502.88;5073133;28;20032;-45
2022/04/21 12:16:52;;;;;;;3.58;3.10;;;;;;;29.75;19.34;100483.34;5055686;28;20028;-43
2022/04/21 12:19:32;;;;;;;6.35;2.90;;;;;;;29.83;18.40;100499.13;5073476;28;20024;-43
2022/04/21 12:22:03;;;;;;;12.90;3.67;;;;;;;29.88;18.65;100491.53;5076897;28;20036;-43